createdAt,value
2022-08-11T00:01:26.290Z,4.43
2022-08-11T00:04:13.701Z,4.10
2022-08-11T00:07:04.211Z,4.28
2022-08-11T00:09:50.091Z,4.20
2022-08-11T00:12:35.683Z,3.88
2022-08-11T00:15:22.921Z,4.20
2022-08-11T00:18:09.313Z,4.15
2022-08-11T00:21:00.173Z,4.28
2022-08-11T00:23:58.263Z,4.72
2022-08-11T00:26:49.465Z,6.53
2022-08-11T00:29:35.321Z,5.60
2022-08-11T00:32:40.905Z,4.43
2022-08-11T00:35:51.013Z,5.00
2022-08-11T00:38:40.796Z,5.13
2022-08-11T00:41:47.759Z,5.05
2022-08-11T00:45:17.276Z,5.28
2022-08-11T00:48:33.339Z,5.45
2022-08-11T00:52:04.386Z,4.85
2022-08-11T00:55:03.497Z,5.25
2022-08-11T00:58:07.489Z,4.88
2022-08-11T01:01:10.667Z,5.32
2022-08-11T01:04:10.815Z,5.53
2022-08-11T01:08:01.745Z,5.85
2022-08-11T01:10:59.260Z,7.22
2022-08-11T01:14:06.284Z,5.80
2022-08-11T01:17:29.480Z,5.35
2022-08-11T01:20:47.915Z,5.07
2022-08-11T01:23:31.030Z,5.68
2022-08-11T01:26:53.987Z,5.63
2022-08-11T01:29:49.467Z,7.28
2022-08-11T01:33:20.152Z,7.22
2022-08-11T01:36:33.303Z,6.38
2022-08-11T01:39:55.525Z,5.88
2022-08-11T01:43:15.321Z,6.32
2022-08-11T01:46:12.801Z,6.07
2022-08-11T01:50:06.743Z,5.80
2022-08-11T01:52:42.285Z,5.82
2022-08-11T01:55:58.987Z,6.20
2022-08-11T01:59:13.497Z,5.80
2022-08-11T02:02:10.909Z,6.03
2022-08-11T02:08:33.640Z,5.13
2022-08-11T02:11:35.730Z,6.03
2022-08-11T02:14:37.111Z,5.65
2022-08-11T02:17:54.895Z,6.18
2022-08-11T02:21:14.368Z,5.53
2022-08-11T02:24:10.767Z,5.75
2022-08-11T02:27:16.285Z,5.47
2022-08-11T02:30:08.448Z,4.80
2022-08-11T02:33:18.259Z,5.35
2022-08-11T02:36:08.494Z,5.60
2022-08-11T02:39:09.909Z,5.45
2022-08-11T02:42:32.397Z,5.70
2022-08-11T02:45:50.092Z,4.93
2022-08-11T02:49:14.943Z,5.70
2022-08-11T02:52:09.689Z,5.63
2022-08-11T02:55:46.990Z,6.03
2022-08-11T02:59:14.089Z,5.38
2022-08-11T03:02:14.504Z,5.78
2022-08-11T03:05:12.242Z,5.88
2022-08-11T03:08:24.162Z,6.00
2022-08-11T03:11:36.217Z,5.13
2022-08-11T03:14:51.319Z,5.75
2022-08-11T03:18:04.906Z,5.20
2022-08-11T03:21:16.142Z,6.60
2022-08-11T03:24:25.723Z,6.20
2022-08-11T03:27:48.616Z,6.60
2022-08-11T03:30:54.462Z,5.90
2022-08-11T03:34:06.723Z,5.45
2022-08-11T03:37:17.083Z,5.50
2022-08-11T03:40:50.051Z,5.55
2022-08-11T03:44:07.780Z,5.40
2022-08-11T03:47:07.959Z,6.38
2022-08-11T03:50:07.965Z,6.15
2022-08-11T03:53:19.230Z,6.35
2022-08-11T03:56:29.714Z,6.25
2022-08-11T03:59:34.791Z,6.22
2022-08-11T04:02:43.834Z,6.30
2022-08-11T04:05:42.363Z,6.70
2022-08-11T04:09:11.338Z,6.70
2022-08-11T04:12:14.661Z,8.00
2022-08-11T04:16:11.714Z,8.25
2022-08-11T04:19:19.347Z,8.00
2022-08-11T04:22:46.506Z,8.50
2022-08-11T04:26:11.665Z,8.43
2022-08-11T04:29:36.311Z,8.55
2022-08-11T04:33:35.396Z,7.63
2022-08-11T04:37:17.395Z,7.97
2022-08-11T04:40:27.767Z,8.65
2022-08-11T04:43:37.297Z,7.90
2022-08-11T04:47:07.292Z,8.95
2022-08-11T04:51:08.643Z,8.82
2022-08-11T04:54:28.433Z,9.13
2022-08-11T04:58:05.728Z,8.93
2022-08-11T05:01:36.973Z,9.40
2022-08-11T05:05:18.385Z,9.13
2022-08-11T05:08:43.897Z,8.98
2022-08-11T05:11:50.692Z,8.73
2022-08-11T05:15:12.286Z,8.63
2022-08-11T05:18:37.992Z,8.48
2022-08-11T05:21:45.546Z,8.75
2022-08-11T05:25:05.845Z,8.55
2022-08-11T05:28:30.856Z,9.32
2022-08-11T05:31:38.653Z,9.27
2022-08-11T05:34:54.103Z,8.50
2022-08-11T05:38:05.619Z,8.38
2022-08-11T05:41:12.784Z,9.52
2022-08-11T05:44:22.115Z,11.07
2022-08-11T05:47:27.566Z,9.98
2022-08-11T05:50:34.153Z,11.60
2022-08-11T05:53:45.794Z,10.45
2022-08-11T05:56:34.512Z,12.85
2022-08-11T05:59:21.311Z,12.02
2022-08-11T06:02:08.716Z,15.52
2022-08-11T06:04:59.951Z,16.02
2022-08-11T06:07:48.964Z,15.82
2022-08-11T06:10:43.089Z,17.30
2022-08-11T06:13:29.125Z,14.68
2022-08-11T06:16:23.289Z,16.58
2022-08-11T06:19:10.468Z,13.77
2022-08-11T06:21:57.055Z,16.98
2022-08-11T06:24:53.374Z,16.33
2022-08-11T06:27:41.913Z,15.25
2022-08-11T06:30:45.227Z,15.02
2022-08-11T06:33:57.899Z,17.08
2022-08-11T06:36:59.843Z,18.98
2022-08-11T06:39:49.209Z,18.10
2022-08-11T06:43:02.336Z,19.13
2022-08-11T06:46:03.362Z,18.73
2022-08-11T06:48:49.997Z,20.90
2022-08-11T06:51:38.464Z,19.45
2022-08-11T06:54:31.141Z,18.05
2022-08-11T06:57:38.350Z,17.63
2022-08-11T07:00:28.755Z,16.75
2022-08-11T07:03:17.857Z,16.95
2022-08-11T07:06:51.257Z,16.48
2022-08-11T07:10:38.770Z,14.55
2022-08-11T07:13:45.891Z,14.40
2022-08-11T07:16:35.363Z,13.32
2022-08-11T07:19:44.609Z,13.40
2022-08-11T07:22:51.465Z,13.70
2022-08-11T07:25:58.720Z,13.98
2022-08-11T07:28:58.021Z,11.77
2022-08-11T07:31:51.151Z,14.77
2022-08-11T07:34:40.572Z,15.18
2022-08-11T07:37:29.472Z,15.05
2022-08-11T07:40:25.751Z,14.27
2022-08-11T07:43:13.208Z,14.80
2022-08-11T07:46:17.523Z,14.52
2022-08-11T07:49:27.179Z,14.18
2022-08-11T07:52:33.671Z,13.43
2022-08-11T07:55:22.055Z,14.80
2022-08-11T07:58:52.427Z,11.65
2022-08-11T08:01:57.762Z,13.50
2022-08-11T08:05:04.027Z,13.75
2022-08-11T08:08:08.003Z,13.20
2022-08-11T08:11:15.345Z,12.20
2022-08-11T08:14:19.573Z,12.55
2022-08-11T08:17:23.676Z,13.52
2022-08-11T08:20:13.503Z,11.85
2022-08-11T08:23:01.132Z,12.52
2022-08-11T08:25:47.735Z,11.43
2022-08-11T08:28:34.243Z,11.90
2022-08-11T08:31:19.709Z,11.77
2022-08-11T08:34:05.279Z,12.02
2022-08-11T08:36:52.259Z,10.75
2022-08-11T08:39:38.215Z,10.00
2022-08-11T08:42:29.570Z,10.38
2022-08-11T08:45:18.639Z,10.27
2022-08-11T08:48:08.989Z,9.55
2022-08-11T08:51:17.443Z,9.55
2022-08-11T08:54:21.634Z,10.15
2022-08-11T08:57:09.226Z,10.50
2022-08-11T08:59:55.395Z,9.88
2022-08-11T09:02:42.087Z,11.52
2022-08-11T09:05:27.535Z,10.30
2022-08-11T09:08:13.588Z,8.60
2022-08-11T09:11:19.860Z,9.63
2022-08-11T09:14:09.298Z,9.43
2022-08-11T09:16:57.264Z,9.95
2022-08-11T09:19:43.246Z,9.90
2022-08-11T09:23:29.621Z,10.25
2022-08-11T09:26:22.572Z,9.38
2022-08-11T09:29:16.765Z,8.45
2022-08-11T09:32:02.581Z,7.70
2022-08-11T09:34:52.113Z,7.47
2022-08-11T09:37:59.470Z,8.27
2022-08-11T09:40:56.172Z,6.65
2022-08-11T09:44:05.898Z,6.95
2022-08-11T09:46:54.090Z,7.60
2022-08-11T09:49:53.198Z,6.78
2022-08-11T09:52:57.122Z,6.97
2022-08-11T09:55:47.996Z,6.75
2022-08-11T09:58:43.148Z,6.38
2022-08-11T10:01:32.618Z,6.35
2022-08-11T10:04:48.571Z,6.38
2022-08-11T10:07:34.586Z,5.63
2022-08-11T10:10:22.757Z,5.70
2022-08-11T10:14:30.533Z,5.47
2022-08-11T10:16:28.152Z,4.55
2022-08-11T10:19:19.087Z,5.60
2022-08-11T10:22:24.755Z,4.07
2022-08-11T10:25:33.176Z,4.00
2022-08-11T10:28:33.827Z,4.35
2022-08-11T10:31:57.530Z,4.22
2022-08-11T10:34:51.165Z,3.63
2022-08-11T10:38:08.306Z,3.55
2022-08-11T10:41:11.751Z,3.60
2022-08-11T10:44:03.570Z,3.40
2022-08-11T10:47:08.749Z,2.83
2022-08-11T10:50:14.853Z,2.63
2022-08-11T10:53:19.763Z,2.60
2022-08-11T10:56:25.417Z,3.00
2022-08-11T10:59:11.042Z,3.10
2022-08-11T11:01:58.321Z,4.13
2022-08-11T11:05:01.442Z,2.40
2022-08-11T11:08:31.805Z,2.42
2022-08-11T11:11:21.147Z,2.67
2022-08-11T11:14:27.224Z,2.53
2022-08-11T11:17:14.079Z,2.67
2022-08-11T11:20:03.718Z,2.35
2022-08-11T11:22:55.040Z,2.15
2022-08-11T11:26:11.089Z,2.20
2022-08-11T11:29:28.109Z,2.70
2022-08-11T11:32:18.468Z,2.17
2022-08-11T11:35:16.309Z,1.95
2022-08-11T11:38:04.210Z,2.00
2022-08-11T11:41:11.221Z,2.22
2022-08-11T11:43:57.683Z,2.38
2022-08-11T11:46:47.626Z,2.17
2022-08-11T11:49:35.379Z,1.77
2022-08-11T11:52:22.238Z,2.08
2022-08-11T11:55:09.052Z,1.77
2022-08-11T11:58:18.647Z,2.35
2022-08-11T12:01:19.025Z,1.90
2022-08-11T12:04:06.690Z,2.20
2022-08-11T12:07:12.988Z,2.05
2022-08-11T12:10:00.027Z,2.67
2022-08-11T12:13:05.536Z,2.17
2022-08-11T12:16:31.567Z,2.10
2022-08-11T12:19:00.428Z,2.22
2022-08-11T12:22:05.194Z,2.00
2022-08-11T12:25:09.855Z,1.80
2022-08-11T12:27:56.700Z,2.30
2022-08-11T12:30:49.472Z,1.92
2022-08-11T12:33:43.902Z,2.33
2022-08-11T12:36:33.648Z,2.00
2022-08-11T12:40:15.766Z,2.05
2022-08-11T12:43:21.018Z,1.70
2022-08-11T12:46:16.610Z,2.00
2022-08-11T12:49:31.285Z,1.50
2022-08-11T12:52:23.961Z,1.55
2022-08-11T12:55:39.569Z,1.52
2022-08-11T12:58:27.228Z,1.60
2022-08-11T13:01:31.900Z,1.60
2022-08-11T13:04:35.965Z,1.83
2022-08-11T13:07:22.334Z,1.60
2022-08-11T13:10:11.324Z,1.85
2022-08-11T13:13:52.282Z,1.67
2022-08-11T13:16:15.073Z,1.60
2022-08-11T13:19:01.832Z,2.08
2022-08-11T13:21:49.392Z,1.52
2022-08-11T13:24:36.638Z,1.77
2022-08-11T13:27:22.977Z,2.08
2022-08-11T13:30:27.533Z,2.00
2022-08-11T13:33:13.932Z,2.17
2022-08-11T13:36:00.652Z,1.73
2022-08-11T13:38:50.029Z,1.65
2022-08-11T13:41:44.200Z,2.55
2022-08-11T13:44:33.549Z,2.22
2022-08-11T13:47:23.655Z,1.80
2022-08-11T13:50:12.579Z,2.20
2022-08-11T13:52:59.014Z,2.35
2022-08-11T13:55:52.292Z,1.98
2022-08-11T13:58:40.647Z,1.55
2022-08-11T14:02:20.887Z,2.40
2022-08-11T14:04:42.786Z,2.00
2022-08-11T14:07:37.863Z,2.20
2022-08-11T14:10:28.945Z,1.52
2022-08-11T14:13:52.346Z,1.90
2022-08-11T14:16:42.963Z,1.60
2022-08-11T14:19:29.383Z,1.75
2022-08-11T14:22:16.716Z,1.40
2022-08-11T14:25:02.800Z,2.33
2022-08-11T14:28:32.065Z,1.75
2022-08-11T14:30:57.623Z,1.60
2022-08-11T14:33:58.573Z,1.90
2022-08-11T14:36:47.279Z,1.70
2022-08-11T14:39:36.029Z,1.52
2022-08-11T14:42:42.377Z,1.83
2022-08-11T14:45:57.885Z,2.03
2022-08-11T14:48:45.530Z,2.80
2022-08-11T14:51:31.697Z,2.35
2022-08-11T14:54:35.999Z,2.58
2022-08-11T14:57:55.323Z,2.40
2022-08-11T15:00:30.217Z,1.92
2022-08-11T15:03:16.237Z,1.98
2022-08-11T15:06:05.060Z,2.30
2022-08-11T15:08:56.524Z,1.83
2022-08-11T15:12:32.965Z,1.83
2022-08-11T15:15:38.939Z,1.65
2022-08-11T15:18:26.021Z,1.70
2022-08-11T15:21:30.350Z,1.70
2022-08-11T15:24:30.713Z,1.33
2022-08-11T15:27:42.495Z,1.92
2022-08-11T15:30:47.393Z,1.77
2022-08-11T15:33:55.409Z,1.85
2022-08-11T15:37:03.831Z,1.80
2022-08-11T15:40:31.082Z,1.58
2022-08-11T15:43:42.142Z,1.55
2022-08-11T15:46:47.335Z,1.45
2022-08-11T15:50:11.001Z,1.60
2022-08-11T15:52:59.086Z,1.75
2022-08-11T15:55:46.880Z,1.75
2022-08-11T15:59:10.728Z,1.88
2022-08-11T16:02:12.885Z,2.03
2022-08-11T16:05:11.838Z,1.75
2022-08-11T16:07:58.506Z,1.90
2022-08-11T16:10:46.658Z,2.03
2022-08-11T16:13:37.435Z,1.98
2022-08-11T16:16:23.104Z,2.00
2022-08-11T16:19:10.858Z,2.10
2022-08-11T16:21:57.535Z,2.03
2022-08-11T16:27:01.506Z,1.90
2022-08-11T16:28:06.061Z,2.00
2022-08-11T16:30:53.419Z,1.90
2022-08-11T16:33:50.520Z,2.63
2022-08-11T16:36:55.752Z,1.98
2022-08-11T16:39:42.658Z,1.92
2022-08-11T16:46:15.493Z,2.10
2022-08-11T16:49:05.173Z,2.20
2022-08-11T16:51:50.953Z,2.13
2022-08-11T16:54:37.616Z,2.33
2022-08-11T16:57:45.236Z,1.83
2022-08-11T17:00:31.576Z,1.75
2022-08-11T17:03:38.152Z,2.10
2022-08-11T17:06:42.034Z,2.00
2022-08-11T17:09:48.622Z,1.98
2022-08-11T17:12:56.792Z,2.15
2022-08-11T17:16:07.231Z,2.10
2022-08-11T17:19:17.094Z,1.95
2022-08-11T17:22:22.288Z,2.00
2022-08-11T17:25:09.936Z,1.70
2022-08-11T17:27:56.764Z,2.17
2022-08-11T17:31:01.576Z,1.95
2022-08-11T17:34:18.456Z,1.90
2022-08-11T17:37:04.848Z,1.70
2022-08-11T17:39:51.568Z,2.05
2022-08-11T17:42:57.069Z,2.10
2022-08-11T17:46:03.440Z,2.17
2022-08-11T17:48:49.775Z,2.00
2022-08-11T17:51:55.252Z,1.92
2022-08-11T17:55:01.596Z,2.50
2022-08-11T17:58:12.095Z,1.70
2022-08-11T18:01:08.665Z,2.10
2022-08-11T18:03:58.718Z,2.15
2022-08-11T18:06:46.494Z,2.22
2022-08-11T18:09:50.463Z,2.30
2022-08-11T18:12:54.522Z,2.85
2022-08-11T18:16:01.697Z,3.30
2022-08-11T18:19:05.710Z,2.30
2022-08-11T18:22:15.349Z,2.28
2022-08-11T18:25:45.679Z,1.95
2022-08-11T18:28:56.247Z,1.60
2022-08-11T18:32:08.215Z,2.17
2022-08-11T18:35:15.359Z,2.00
2022-08-11T18:38:21.711Z,2.20
2022-08-11T18:41:28.560Z,2.38
2022-08-11T18:44:35.947Z,2.15
2022-08-11T18:47:41.780Z,2.25
2022-08-11T18:50:47.314Z,2.22
2022-08-11T18:54:09.675Z,2.20
2022-08-11T18:57:18.251Z,2.53
2022-08-11T19:00:25.332Z,2.33
2022-08-11T19:03:31.411Z,2.40
2022-08-11T19:06:50.017Z,2.00
2022-08-11T19:09:56.359Z,1.95
2022-08-11T19:13:02.014Z,1.90
2022-08-11T19:16:06.993Z,2.55
2022-08-11T19:19:13.810Z,2.80
2022-08-11T19:22:21.674Z,2.00
2022-08-11T19:25:27.274Z,2.47
2022-08-11T19:28:33.272Z,2.20
2022-08-11T19:31:44.341Z,2.30
2022-08-11T19:34:50.035Z,3.08
2022-08-11T19:37:56.490Z,2.20
2022-08-11T19:41:02.142Z,2.50
2022-08-11T19:44:07.807Z,2.47
2022-08-11T19:47:12.814Z,2.35
2022-08-11T19:50:24.274Z,2.40
2022-08-11T19:53:29.143Z,2.28
2022-08-11T19:56:34.534Z,2.75
2022-08-11T19:59:38.963Z,2.65
2022-08-11T20:02:43.117Z,2.47
2022-08-11T20:05:59.436Z,2.83
2022-08-11T20:09:06.255Z,2.30
2022-08-11T20:12:13.545Z,2.63
2022-08-11T20:15:18.751Z,2.45
2022-08-11T20:18:25.542Z,2.75
2022-08-11T20:21:33.115Z,3.45
2022-08-11T20:24:39.079Z,2.95
2022-08-11T20:27:44.043Z,2.58
2022-08-11T20:30:51.976Z,2.80
2022-08-11T20:33:57.058Z,3.70
2022-08-11T20:37:02.555Z,3.08
2022-08-11T20:40:10.215Z,3.95
2022-08-11T20:44:05.676Z,3.33
2022-08-11T20:46:42.040Z,2.78
2022-08-11T20:49:53.794Z,2.92
2022-08-11T20:53:02.795Z,2.92
2022-08-11T20:56:08.708Z,3.05
2022-08-11T20:59:18.831Z,3.00
2022-08-11T21:02:28.417Z,3.00
2022-08-11T21:06:09.299Z,3.33
2022-08-11T21:09:00.752Z,2.90
2022-08-11T21:12:06.513Z,3.38
2022-08-11T21:15:13.943Z,3.13
2022-08-11T21:18:41.327Z,2.90
2022-08-11T21:21:50.079Z,3.25
2022-08-11T21:24:58.344Z,3.90
2022-08-11T21:28:04.983Z,3.28
2022-08-11T21:31:10.713Z,3.03
2022-08-11T21:34:15.903Z,3.55
2022-08-11T21:37:21.704Z,2.70
2022-08-11T21:40:27.485Z,3.13
2022-08-11T21:43:33.780Z,3.70
2022-08-11T21:46:41.270Z,3.80
2022-08-11T21:49:46.447Z,3.20
2022-08-11T21:52:51.309Z,3.50
2022-08-11T21:55:58.262Z,4.43
2022-08-11T21:59:07.106Z,3.90
2022-08-11T22:02:13.142Z,4.07
2022-08-11T22:05:17.705Z,3.70
2022-08-11T22:08:22.127Z,3.42
2022-08-11T22:11:31.792Z,4.70
2022-08-11T22:14:36.738Z,4.32
2022-08-11T22:17:40.598Z,3.42
2022-08-11T22:20:47.013Z,3.92
2022-08-11T22:23:55.430Z,4.00
2022-08-11T22:27:00.241Z,3.72
2022-08-11T22:30:04.768Z,3.83
2022-08-11T22:33:11.329Z,3.80
2022-08-11T22:36:16.787Z,3.95
2022-08-11T22:39:22.237Z,4.05
2022-08-11T22:42:33.234Z,4.53
2022-08-11T22:45:40.255Z,4.38
2022-08-11T22:48:48.531Z,4.25
2022-08-11T22:51:53.824Z,4.13
2022-08-11T22:54:58.868Z,4.45
2022-08-11T22:58:03.938Z,5.13
2022-08-11T23:01:09.457Z,4.63
2022-08-11T23:04:15.185Z,4.15
2022-08-11T23:07:51.699Z,4.82
2022-08-11T23:10:46.221Z,4.55
2022-08-11T23:13:51.843Z,5.05
2022-08-11T23:16:57.112Z,4.60
2022-08-11T23:20:11.163Z,4.75
2022-08-11T23:23:27.656Z,4.93
2022-08-11T23:26:32.636Z,4.70
2022-08-11T23:29:37.592Z,4.05
2022-08-11T23:32:45.462Z,4.78
2022-08-11T23:35:56.438Z,4.90
2022-08-11T23:39:03.388Z,4.80
2022-08-11T23:42:07.410Z,4.65
2022-08-11T23:45:11.299Z,4.20
2022-08-11T23:48:16.918Z,4.97
2022-08-11T23:51:22.453Z,4.70
2022-08-11T23:54:28.391Z,4.60
2022-08-11T23:57:32.568Z,4.85
